ěÝzenÝ letovÚho provozu ╚eskÚ republiky
Letiste: LKNA Aktualizace: 10.08.2020 05:30:26  UTC
 METAR LKNA 10.08. 05:30 ...
METAR LKNA 100530Z 34005KT CAVOK 20/16 Q1018 NOSIG RMK BLU BLU=
 TAF LKNA 09.08. 23:00 ...
TAF LKNA 092300Z 1000/1100 03008KT CAVOK      BECMG 1007/1009 09008KT      PROB40 TEMPO 1012/1016 12010KT SCT035TCU=